sensor_id;sensor_type;location;lat;lon;timestamp;P1;durP1;ratioP1;P2;durP2;ratioP2
20794;SDS011;28087;-33.874;151.240;2022-12-18T00:00:02;3.50;;;1.10;;
20794;SDS011;28087;-33.874;151.240;2022-12-18T00:02:42;4.50;;;0.88;;
20794;SDS011;28087;-33.874;151.240;2022-12-18T00:05:20;4.63;;;1.02;;
20794;SDS011;28087;-33.874;151.240;2022-12-18T00:07:56;4.72;;;1.08;;
20794;SDS011;28087;-33.874;151.240;2022-12-18T00:10:38;5.35;;;1.10;;
20794;SDS011;28087;-33.874;151.240;2022-12-18T00:13:14;5.35;;;1.15;;
20794;SDS011;28087;-33.874;151.240;2022-12-18T00:15:51;6.18;;;1.30;;
20794;SDS011;28087;-33.874;151.240;2022-12-18T00:21:11;4.43;;;0.80;;
20794;SDS011;28087;-33.874;151.240;2022-12-18T00:23:48;4.93;;;0.90;;
20794;SDS011;28087;-33.874;151.240;2022-12-18T00:26:25;3.78;;;0.82;;
20794;SDS011;28087;-33.874;151.240;2022-12-18T00:29:06;5.60;;;1.00;;
20794;SDS011;28087;-33.874;151.240;2022-12-18T00:31:46;4.32;;;0.93;;
20794;SDS011;28087;-33.874;151.240;2022-12-18T00:34:24;3.88;;;0.88;;
20794;SDS011;28087;-33.874;151.240;2022-12-18T00:37:03;2.58;;;0.80;;
20794;SDS011;28087;-33.874;151.240;2022-12-18T00:39:43;3.70;;;0.95;;
20794;SDS011;28087;-33.874;151.240;2022-12-18T00:42:26;8.68;;;1.38;;
20794;SDS011;28087;-33.874;151.240;2022-12-18T00:45:18;5.82;;;1.08;;
20794;SDS011;28087;-33.874;151.240;2022-12-18T00:47:56;4.95;;;0.90;;
20794;SDS011;28087;-33.874;151.240;2022-12-18T00:50:33;8.40;;;1.20;;
20794;SDS011;28087;-33.874;151.240;2022-12-18T00:53:12;7.90;;;1.20;;
20794;SDS011;28087;-33.874;151.240;2022-12-18T00:55:57;6.60;;;1.30;;
20794;SDS011;28087;-33.874;151.240;2022-12-18T00:58:32;6.63;;;1.27;;
20794;SDS011;28087;-33.874;151.240;2022-12-18T01:01:09;4.50;;;1.10;;
20794;SDS011;28087;-33.874;151.240;2022-12-18T01:03:45;5.10;;;1.00;;
20794;SDS011;28087;-33.874;151.240;2022-12-18T01:06:21;5.38;;;0.85;;
20794;SDS011;28087;-33.874;151.240;2022-12-18T01:08:59;3.45;;;0.98;;
20794;SDS011;28087;-33.874;151.240;2022-12-18T01:11:37;4.90;;;0.90;;
20794;SDS011;28087;-33.874;151.240;2022-12-18T01:14:17;6.13;;;1.15;;
20794;SDS011;28087;-33.874;151.240;2022-12-18T01:16:54;7.32;;;1.33;;
20794;SDS011;28087;-33.874;151.240;2022-12-18T01:19:36;8.68;;;1.55;;
20794;SDS011;28087;-33.874;151.240;2022-12-18T01:22:11;4.70;;;1.20;;
20794;SDS011;28087;-33.874;151.240;2022-12-18T01:24:50;6.40;;;1.50;;
20794;SDS011;28087;-33.874;151.240;2022-12-18T01:27:26;7.88;;;1.20;;
20794;SDS011;28087;-33.874;151.240;2022-12-18T01:30:05;6.55;;;1.80;;
20794;SDS011;28087;-33.874;151.240;2022-12-18T01:32:42;6.32;;;1.23;;
20794;SDS011;28087;-33.874;151.240;2022-12-18T01:35:19;5.53;;;0.90;;
20794;SDS011;28087;-33.874;151.240;2022-12-18T01:37:55;8.75;;;1.38;;
20794;SDS011;28087;-33.874;151.240;2022-12-18T01:40:32;7.95;;;1.50;;
20794;SDS011;28087;-33.874;151.240;2022-12-18T01:43:08;9.05;;;1.50;;
20794;SDS011;28087;-33.874;151.240;2022-12-18T01:45:47;10.05;;;1.70;;
20794;SDS011;28087;-33.874;151.240;2022-12-18T01:48:24;11.65;;;1.83;;
20794;SDS011;28087;-33.874;151.240;2022-12-18T01:51:01;7.68;;;1.52;;
20794;SDS011;28087;-33.874;151.240;2022-12-18T01:53:36;9.48;;;1.58;;
20794;SDS011;28087;-33.874;151.240;2022-12-18T01:56:18;6.30;;;1.38;;
20794;SDS011;28087;-33.874;151.240;2022-12-18T01:59:10;9.93;;;1.90;;
20794;SDS011;28087;-33.874;151.240;2022-12-18T02:01:47;10.05;;;2.15;;
20794;SDS011;28087;-33.874;151.240;2022-12-18T02:04:29;9.30;;;1.70;;
20794;SDS011;28087;-33.874;151.240;2022-12-18T02:07:15;6.63;;;1.50;;
20794;SDS011;28087;-33.874;151.240;2022-12-18T02:09:54;7.28;;;1.45;;
20794;SDS011;28087;-33.874;151.240;2022-12-18T02:12:34;6.97;;;1.50;;
20794;SDS011;28087;-33.874;151.240;2022-12-18T02:15:20;6.78;;;1.55;;
20794;SDS011;28087;-33.874;151.240;2022-12-18T02:18:01;8.23;;;2.13;;
20794;SDS011;28087;-33.874;151.240;2022-12-18T02:20:41;8.55;;;1.63;;
20794;SDS011;28087;-33.874;151.240;2022-12-18T02:23:22;9.27;;;2.20;;
20794;SDS011;28087;-33.874;151.240;2022-12-18T02:26:13;9.80;;;1.50;;
20794;SDS011;28087;-33.874;151.240;2022-12-18T02:28:54;10.38;;;1.60;;
20794;SDS011;28087;-33.874;151.240;2022-12-18T02:31:34;10.65;;;1.85;;
20794;SDS011;28087;-33.874;151.240;2022-12-18T02:34:11;8.57;;;1.48;;
20794;SDS011;28087;-33.874;151.240;2022-12-18T02:36:47;6.90;;;1.35;;
20794;SDS011;28087;-33.874;151.240;2022-12-18T02:39:25;13.52;;;1.63;;
20794;SDS011;28087;-33.874;151.240;2022-12-18T02:42:07;11.30;;;1.67;;
20794;SDS011;28087;-33.874;151.240;2022-12-18T02:44:42;12.20;;;2.08;;
20794;SDS011;28087;-33.874;151.240;2022-12-18T02:47:22;12.20;;;1.55;;
20794;SDS011;28087;-33.874;151.240;2022-12-18T02:50:04;9.07;;;1.35;;
20794;SDS011;28087;-33.874;151.240;2022-12-18T02:52:42;8.27;;;1.48;;
20794;SDS011;28087;-33.874;151.240;2022-12-18T02:55:24;8.30;;;1.48;;
20794;SDS011;28087;-33.874;151.240;2022-12-18T02:58:14;9.38;;;1.63;;
20794;SDS011;28087;-33.874;151.240;2022-12-18T03:00:57;13.70;;;1.67;;
20794;SDS011;28087;-33.874;151.240;2022-12-18T03:03:33;9.75;;;1.63;;
20794;SDS011;28087;-33.874;151.240;2022-12-18T03:06:12;6.35;;;1.40;;
20794;SDS011;28087;-33.874;151.240;2022-12-18T03:08:49;10.65;;;1.65;;
20794;SDS011;28087;-33.874;151.240;2022-12-18T03:11:28;9.20;;;1.63;;
20794;SDS011;28087;-33.874;151.240;2022-12-18T03:14:22;9.55;;;1.80;;
20794;SDS011;28087;-33.874;151.240;2022-12-18T03:17:02;6.25;;;1.58;;
20794;SDS011;28087;-33.874;151.240;2022-12-18T03:19:39;9.38;;;1.50;;
20794;SDS011;28087;-33.874;151.240;2022-12-18T03:22:18;9.60;;;1.70;;
20794;SDS011;28087;-33.874;151.240;2022-12-18T03:24:54;10.60;;;1.40;;
20794;SDS011;28087;-33.874;151.240;2022-12-18T03:27:35;12.25;;;1.90;;
20794;SDS011;28087;-33.874;151.240;2022-12-18T03:30:19;9.40;;;1.75;;
20794;SDS011;28087;-33.874;151.240;2022-12-18T03:33:00;11.05;;;1.95;;
20794;SDS011;28087;-33.874;151.240;2022-12-18T03:35:45;14.52;;;1.95;;
20794;SDS011;28087;-33.874;151.240;2022-12-18T03:38:21;14.27;;;2.40;;
20794;SDS011;28087;-33.874;151.240;2022-12-18T03:41:01;12.27;;;2.13;;
20794;SDS011;28087;-33.874;151.240;2022-12-18T03:43:56;10.30;;;1.88;;
20794;SDS011;28087;-33.874;151.240;2022-12-18T03:46:39;13.38;;;1.98;;
20794;SDS011;28087;-33.874;151.240;2022-12-18T03:49:19;9.65;;;1.73;;
20794;SDS011;28087;-33.874;151.240;2022-12-18T03:51:59;10.77;;;2.13;;
20794;SDS011;28087;-33.874;151.240;2022-12-18T03:54:45;10.50;;;2.15;;
20794;SDS011;28087;-33.874;151.240;2022-12-18T03:57:21;11.10;;;1.90;;
20794;SDS011;28087;-33.874;151.240;2022-12-18T04:00:06;12.32;;;2.22;;
20794;SDS011;28087;-33.874;151.240;2022-12-18T04:03:04;12.50;;;1.77;;
20794;SDS011;28087;-33.874;151.240;2022-12-18T04:05:45;10.77;;;2.03;;
20794;SDS011;28087;-33.874;151.240;2022-12-18T04:08:22;8.82;;;1.80;;
20794;SDS011;28087;-33.874;151.240;2022-12-18T04:11:06;13.10;;;2.00;;
20794;SDS011;28087;-33.874;151.240;2022-12-18T04:13:45;12.10;;;2.17;;
20794;SDS011;28087;-33.874;151.240;2022-12-18T04:16:24;11.20;;;1.70;;
20794;SDS011;28087;-33.874;151.240;2022-12-18T04:19:06;14.50;;;2.40;;
20794;SDS011;28087;-33.874;151.240;2022-12-18T04:21:44;9.32;;;1.80;;
20794;SDS011;28087;-33.874;151.240;2022-12-18T04:24:25;9.38;;;1.73;;
20794;SDS011;28087;-33.874;151.240;2022-12-18T04:27:08;11.00;;;1.80;;
20794;SDS011;28087;-33.874;151.240;2022-12-18T04:29:48;5.45;;;1.20;;
20794;SDS011;28087;-33.874;151.240;2022-12-18T04:32:24;7.72;;;1.23;;
20794;SDS011;28087;-33.874;151.240;2022-12-18T04:35:05;7.13;;;1.40;;
20794;SDS011;28087;-33.874;151.240;2022-12-18T04:37:45;7.68;;;1.50;;
20794;SDS011;28087;-33.874;151.240;2022-12-18T04:40:21;5.97;;;1.42;;
20794;SDS011;28087;-33.874;151.240;2022-12-18T04:43:04;8.88;;;1.40;;
20794;SDS011;28087;-33.874;151.240;2022-12-18T04:45:41;8.43;;;1.60;;
20794;SDS011;28087;-33.874;151.240;2022-12-18T04:48:17;9.05;;;1.65;;
20794;SDS011;28087;-33.874;151.240;2022-12-18T04:50:55;7.07;;;1.63;;
20794;SDS011;28087;-33.874;151.240;2022-12-18T04:53:31;13.95;;;1.83;;
20794;SDS011;28087;-33.874;151.240;2022-12-18T04:56:09;7.93;;;1.60;;
20794;SDS011;28087;-33.874;151.240;2022-12-18T04:58:46;9.30;;;1.60;;
20794;SDS011;28087;-33.874;151.240;2022-12-18T05:01:23;9.60;;;1.67;;
20794;SDS011;28087;-33.874;151.240;2022-12-18T05:04:04;10.63;;;1.75;;
20794;SDS011;28087;-33.874;151.240;2022-12-18T05:06:44;8.55;;;1.60;;
20794;SDS011;28087;-33.874;151.240;2022-12-18T05:09:22;8.05;;;1.52;;
20794;SDS011;28087;-33.874;151.240;2022-12-18T05:11:59;11.45;;;1.50;;
20794;SDS011;28087;-33.874;151.240;2022-12-18T05:14:36;8.13;;;1.48;;
20794;SDS011;28087;-33.874;151.240;2022-12-18T05:17:14;9.02;;;1.55;;
20794;SDS011;28087;-33.874;151.240;2022-12-18T05:19:52;6.20;;;1.10;;
20794;SDS011;28087;-33.874;151.240;2022-12-18T05:22:30;7.57;;;1.20;;
20794;SDS011;28087;-33.874;151.240;2022-12-18T05:25:08;9.40;;;1.35;;
20794;SDS011;28087;-33.874;151.240;2022-12-18T05:27:43;5.82;;;1.10;;
20794;SDS011;28087;-33.874;151.240;2022-12-18T05:30:18;10.32;;;1.23;;
20794;SDS011;28087;-33.874;151.240;2022-12-18T05:32:53;5.53;;;0.90;;
20794;SDS011;28087;-33.874;151.240;2022-12-18T05:35:28;10.23;;;1.40;;
20794;SDS011;28087;-33.874;151.240;2022-12-18T05:38:06;7.05;;;1.20;;
20794;SDS011;28087;-33.874;151.240;2022-12-18T05:40:44;8.82;;;1.48;;
20794;SDS011;28087;-33.874;151.240;2022-12-18T05:43:21;7.20;;;1.33;;
20794;SDS011;28087;-33.874;151.240;2022-12-18T05:46:02;8.80;;;1.58;;
20794;SDS011;28087;-33.874;151.240;2022-12-18T05:48:38;9.13;;;1.20;;
20794;SDS011;28087;-33.874;151.240;2022-12-18T05:51:21;7.80;;;1.20;;
20794;SDS011;28087;-33.874;151.240;2022-12-18T05:53:58;4.50;;;1.10;;
20794;SDS011;28087;-33.874;151.240;2022-12-18T05:56:35;6.60;;;1.42;;
20794;SDS011;28087;-33.874;151.240;2022-12-18T05:59:16;8.48;;;1.20;;
20794;SDS011;28087;-33.874;151.240;2022-12-18T06:01:53;10.80;;;1.60;;
20794;SDS011;28087;-33.874;151.240;2022-12-18T06:04:36;8.65;;;1.70;;
20794;SDS011;28087;-33.874;151.240;2022-12-18T06:07:13;9.85;;;1.48;;
20794;SDS011;28087;-33.874;151.240;2022-12-18T06:10:01;6.55;;;1.40;;
20794;SDS011;28087;-33.874;151.240;2022-12-18T06:12:40;8.63;;;1.48;;
20794;SDS011;28087;-33.874;151.240;2022-12-18T06:15:20;7.90;;;1.60;;
20794;SDS011;28087;-33.874;151.240;2022-12-18T06:17:58;8.50;;;1.70;;
20794;SDS011;28087;-33.874;151.240;2022-12-18T06:20:41;7.68;;;1.60;;
20794;SDS011;28087;-33.874;151.240;2022-12-18T06:23:18;11.57;;;2.10;;
20794;SDS011;28087;-33.874;151.240;2022-12-18T06:25:55;11.93;;;1.50;;
20794;SDS011;28087;-33.874;151.240;2022-12-18T06:28:33;8.30;;;1.77;;
20794;SDS011;28087;-33.874;151.240;2022-12-18T06:31:11;15.45;;;2.15;;
20794;SDS011;28087;-33.874;151.240;2022-12-18T06:33:49;9.63;;;1.55;;
20794;SDS011;28087;-33.874;151.240;2022-12-18T06:36:25;7.22;;;1.30;;
20794;SDS011;28087;-33.874;151.240;2022-12-18T06:39:01;9.93;;;1.67;;
20794;SDS011;28087;-33.874;151.240;2022-12-18T06:41:42;8.88;;;1.35;;
20794;SDS011;28087;-33.874;151.240;2022-12-18T06:44:19;11.40;;;1.70;;
20794;SDS011;28087;-33.874;151.240;2022-12-18T06:47:00;7.78;;;1.42;;
20794;SDS011;28087;-33.874;151.240;2022-12-18T06:49:36;5.65;;;1.20;;
20794;SDS011;28087;-33.874;151.240;2022-12-18T06:52:15;8.60;;;1.35;;
20794;SDS011;28087;-33.874;151.240;2022-12-18T06:54:58;7.32;;;1.30;;
20794;SDS011;28087;-33.874;151.240;2022-12-18T06:57:39;11.18;;;1.40;;
20794;SDS011;28087;-33.874;151.240;2022-12-18T07:00:16;10.77;;;1.48;;
20794;SDS011;28087;-33.874;151.240;2022-12-18T07:02:55;5.80;;;1.20;;
20794;SDS011;28087;-33.874;151.240;2022-12-18T07:05:32;9.00;;;1.20;;
20794;SDS011;28087;-33.874;151.240;2022-12-18T07:08:08;8.65;;;1.42;;
20794;SDS011;28087;-33.874;151.240;2022-12-18T07:10:43;11.00;;;1.42;;
20794;SDS011;28087;-33.874;151.240;2022-12-18T07:13:27;6.32;;;1.50;;
20794;SDS011;28087;-33.874;151.240;2022-12-18T07:16:06;7.63;;;1.50;;
20794;SDS011;28087;-33.874;151.240;2022-12-18T07:18:50;7.45;;;1.30;;
20794;SDS011;28087;-33.874;151.240;2022-12-18T07:21:26;9.98;;;2.28;;
20794;SDS011;28087;-33.874;151.240;2022-12-18T07:24:01;9.02;;;1.85;;
20794;SDS011;28087;-33.874;151.240;2022-12-18T07:26:37;8.57;;;1.48;;
20794;SDS011;28087;-33.874;151.240;2022-12-18T07:29:14;8.75;;;1.42;;
20794;SDS011;28087;-33.874;151.240;2022-12-18T07:31:49;9.25;;;1.73;;
20794;SDS011;28087;-33.874;151.240;2022-12-18T07:34:28;7.72;;;1.60;;
20794;SDS011;28087;-33.874;151.240;2022-12-18T07:37:06;9.32;;;1.60;;
20794;SDS011;28087;-33.874;151.240;2022-12-18T07:39:43;9.95;;;1.58;;
20794;SDS011;28087;-33.874;151.240;2022-12-18T07:42:20;9.85;;;1.50;;
20794;SDS011;28087;-33.874;151.240;2022-12-18T07:45:08;8.48;;;1.52;;
20794;SDS011;28087;-33.874;151.240;2022-12-18T07:47:44;8.80;;;1.40;;
20794;SDS011;28087;-33.874;151.240;2022-12-18T07:50:20;11.60;;;1.90;;
20794;SDS011;28087;-33.874;151.240;2022-12-18T07:52:56;11.30;;;1.92;;
20794;SDS011;28087;-33.874;151.240;2022-12-18T07:55:34;12.00;;;1.70;;
20794;SDS011;28087;-33.874;151.240;2022-12-18T07:58:29;12.35;;;1.85;;
20794;SDS011;28087;-33.874;151.240;2022-12-18T08:01:10;11.98;;;2.05;;
20794;SDS011;28087;-33.874;151.240;2022-12-18T08:03:51;7.25;;;1.60;;
20794;SDS011;28087;-33.874;151.240;2022-12-18T08:06:27;8.23;;;1.40;;
20794;SDS011;28087;-33.874;151.240;2022-12-18T08:09:04;6.22;;;1.50;;
20794;SDS011;28087;-33.874;151.240;2022-12-18T08:11:39;7.90;;;1.55;;
20794;SDS011;28087;-33.874;151.240;2022-12-18T08:14:15;8.52;;;1.50;;
20794;SDS011;28087;-33.874;151.240;2022-12-18T08:16:56;8.05;;;1.35;;
20794;SDS011;28087;-33.874;151.240;2022-12-18T08:19:34;7.20;;;1.60;;
20794;SDS011;28087;-33.874;151.240;2022-12-18T08:22:09;6.07;;;1.20;;
20794;SDS011;28087;-33.874;151.240;2022-12-18T08:24:45;6.45;;;1.30;;
20794;SDS011;28087;-33.874;151.240;2022-12-18T08:27:20;6.35;;;1.40;;
20794;SDS011;28087;-33.874;151.240;2022-12-18T08:30:00;10.10;;;1.65;;
20794;SDS011;28087;-33.874;151.240;2022-12-18T08:32:37;8.98;;;1.42;;
20794;SDS011;28087;-33.874;151.240;2022-12-18T08:35:14;6.00;;;1.25;;
20794;SDS011;28087;-33.874;151.240;2022-12-18T08:37:49;6.75;;;1.05;;
20794;SDS011;28087;-33.874;151.240;2022-12-18T08:40:25;8.05;;;1.45;;
20794;SDS011;28087;-33.874;151.240;2022-12-18T08:43:00;8.25;;;1.42;;
20794;SDS011;28087;-33.874;151.240;2022-12-18T08:45:51;9.23;;;1.70;;
20794;SDS011;28087;-33.874;151.240;2022-12-18T08:48:28;6.32;;;1.13;;
20794;SDS011;28087;-33.874;151.240;2022-12-18T08:51:04;8.52;;;1.67;;
20794;SDS011;28087;-33.874;151.240;2022-12-18T08:53:40;12.15;;;2.10;;
20794;SDS011;28087;-33.874;151.240;2022-12-18T08:56:17;5.80;;;1.45;;
20794;SDS011;28087;-33.874;151.240;2022-12-18T08:58:54;9.70;;;1.80;;
20794;SDS011;28087;-33.874;151.240;2022-12-18T09:01:32;8.88;;;1.65;;
20794;SDS011;28087;-33.874;151.240;2022-12-18T09:04:10;8.77;;;1.52;;
20794;SDS011;28087;-33.874;151.240;2022-12-18T09:06:45;7.90;;;1.77;;
20794;SDS011;28087;-33.874;151.240;2022-12-18T09:09:20;9.80;;;1.63;;
20794;SDS011;28087;-33.874;151.240;2022-12-18T09:11:56;6.40;;;1.17;;
20794;SDS011;28087;-33.874;151.240;2022-12-18T09:14:34;7.95;;;1.40;;
20794;SDS011;28087;-33.874;151.240;2022-12-18T09:17:13;6.35;;;1.25;;
20794;SDS011;28087;-33.874;151.240;2022-12-18T09:19:51;6.70;;;1.15;;
20794;SDS011;28087;-33.874;151.240;2022-12-18T09:22:27;10.02;;;1.60;;
20794;SDS011;28087;-33.874;151.240;2022-12-18T09:25:02;8.07;;;1.20;;
20794;SDS011;28087;-33.874;151.240;2022-12-18T09:27:38;5.70;;;1.20;;
20794;SDS011;28087;-33.874;151.240;2022-12-18T09:30:14;7.18;;;1.40;;
20794;SDS011;28087;-33.874;151.240;2022-12-18T09:32:49;8.23;;;1.30;;
20794;SDS011;28087;-33.874;151.240;2022-12-18T09:35:27;10.82;;;1.90;;
20794;SDS011;28087;-33.874;151.240;2022-12-18T09:38:02;7.70;;;1.40;;
20794;SDS011;28087;-33.874;151.240;2022-12-18T09:40:41;7.50;;;1.20;;
20794;SDS011;28087;-33.874;151.240;2022-12-18T09:43:18;6.93;;;1.13;;
20794;SDS011;28087;-33.874;151.240;2022-12-18T09:45:55;7.40;;;1.38;;
20794;SDS011;28087;-33.874;151.240;2022-12-18T09:48:32;8.90;;;1.33;;
20794;SDS011;28087;-33.874;151.240;2022-12-18T09:51:13;9.48;;;2.30;;
20794;SDS011;28087;-33.874;151.240;2022-12-18T09:53:50;8.00;;;1.65;;
20794;SDS011;28087;-33.874;151.240;2022-12-18T09:56:26;7.68;;;1.48;;
20794;SDS011;28087;-33.874;151.240;2022-12-18T09:59:14;11.05;;;1.35;;
20794;SDS011;28087;-33.874;151.240;2022-12-18T10:01:50;8.25;;;1.50;;
20794;SDS011;28087;-33.874;151.240;2022-12-18T10:04:26;7.95;;;1.60;;
20794;SDS011;28087;-33.874;151.240;2022-12-18T10:07:07;8.35;;;1.83;;
20794;SDS011;28087;-33.874;151.240;2022-12-18T10:09:46;8.88;;;1.42;;
20794;SDS011;28087;-33.874;151.240;2022-12-18T10:12:27;10.45;;;1.90;;
20794;SDS011;28087;-33.874;151.240;2022-12-18T10:15:05;9.15;;;1.25;;
20794;SDS011;28087;-33.874;151.240;2022-12-18T10:17:44;11.52;;;1.83;;
20794;SDS011;28087;-33.874;151.240;2022-12-18T10:20:20;10.98;;;1.55;;
20794;SDS011;28087;-33.874;151.240;2022-12-18T10:23:02;12.30;;;1.55;;
20794;SDS011;28087;-33.874;151.240;2022-12-18T10:25:40;11.27;;;1.65;;
20794;SDS011;28087;-33.874;151.240;2022-12-18T10:28:17;8.77;;;1.63;;
20794;SDS011;28087;-33.874;151.240;2022-12-18T10:30:53;9.27;;;1.70;;
20794;SDS011;28087;-33.874;151.240;2022-12-18T10:33:29;7.15;;;1.50;;
20794;SDS011;28087;-33.874;151.240;2022-12-18T10:36:05;11.23;;;1.80;;
20794;SDS011;28087;-33.874;151.240;2022-12-18T10:38:42;7.78;;;1.40;;
20794;SDS011;28087;-33.874;151.240;2022-12-18T10:41:24;9.25;;;1.52;;
20794;SDS011;28087;-33.874;151.240;2022-12-18T10:44:11;8.63;;;1.52;;
20794;SDS011;28087;-33.874;151.240;2022-12-18T10:46:47;11.20;;;1.60;;
20794;SDS011;28087;-33.874;151.240;2022-12-18T10:49:24;7.82;;;1.50;;
20794;SDS011;28087;-33.874;151.240;2022-12-18T10:52:07;13.30;;;1.65;;
20794;SDS011;28087;-33.874;151.240;2022-12-18T10:54:49;8.20;;;1.55;;
20794;SDS011;28087;-33.874;151.240;2022-12-18T10:57:30;11.45;;;1.98;;
20794;SDS011;28087;-33.874;151.240;2022-12-18T11:02:55;11.40;;;2.08;;
20794;SDS011;28087;-33.874;151.240;2022-12-18T11:05:31;12.73;;;2.17;;
20794;SDS011;28087;-33.874;151.240;2022-12-18T11:08:11;12.18;;;2.15;;
20794;SDS011;28087;-33.874;151.240;2022-12-18T11:10:57;12.02;;;2.30;;
20794;SDS011;28087;-33.874;151.240;2022-12-18T11:13:32;10.23;;;2.22;;
20794;SDS011;28087;-33.874;151.240;2022-12-18T11:16:07;8.73;;;1.70;;
20794;SDS011;28087;-33.874;151.240;2022-12-18T11:18:43;9.90;;;1.90;;
20794;SDS011;28087;-33.874;151.240;2022-12-18T11:21:18;9.35;;;1.95;;
20794;SDS011;28087;-33.874;151.240;2022-12-18T11:23:53;14.20;;;2.42;;
20794;SDS011;28087;-33.874;151.240;2022-12-18T11:26:35;9.52;;;1.85;;
20794;SDS011;28087;-33.874;151.240;2022-12-18T11:29:15;10.55;;;1.83;;
20794;SDS011;28087;-33.874;151.240;2022-12-18T11:31:50;9.45;;;1.70;;
20794;SDS011;28087;-33.874;151.240;2022-12-18T11:34:26;12.88;;;1.90;;
20794;SDS011;28087;-33.874;151.240;2022-12-18T11:37:02;10.93;;;1.70;;
20794;SDS011;28087;-33.874;151.240;2022-12-18T11:39:40;12.68;;;2.15;;
20794;SDS011;28087;-33.874;151.240;2022-12-18T11:42:20;7.97;;;1.63;;
20794;SDS011;28087;-33.874;151.240;2022-12-18T11:44:58;10.57;;;1.80;;
20794;SDS011;28087;-33.874;151.240;2022-12-18T11:47:35;10.10;;;1.70;;
20794;SDS011;28087;-33.874;151.240;2022-12-18T11:50:13;6.68;;;1.40;;
20794;SDS011;28087;-33.874;151.240;2022-12-18T11:52:48;7.95;;;1.52;;
20794;SDS011;28087;-33.874;151.240;2022-12-18T11:55:30;7.93;;;1.35;;
20794;SDS011;28087;-33.874;151.240;2022-12-18T11:58:12;7.68;;;1.25;;
20794;SDS011;28087;-33.874;151.240;2022-12-18T12:00:49;8.98;;;1.50;;
20794;SDS011;28087;-33.874;151.240;2022-12-18T12:03:34;9.70;;;1.63;;
20794;SDS011;28087;-33.874;151.240;2022-12-18T12:06:13;9.57;;;1.25;;
20794;SDS011;28087;-33.874;151.240;2022-12-18T12:08:56;9.63;;;1.40;;
20794;SDS011;28087;-33.874;151.240;2022-12-18T12:11:35;10.23;;;1.60;;
20794;SDS011;28087;-33.874;151.240;2022-12-18T12:14:27;8.93;;;1.80;;
20794;SDS011;28087;-33.874;151.240;2022-12-18T12:17:10;9.98;;;2.00;;
20794;SDS011;28087;-33.874;151.240;2022-12-18T12:19:50;9.20;;;1.60;;
20794;SDS011;28087;-33.874;151.240;2022-12-18T12:22:29;8.95;;;1.85;;
20794;SDS011;28087;-33.874;151.240;2022-12-18T12:25:19;11.02;;;1.80;;
20794;SDS011;28087;-33.874;151.240;2022-12-18T12:27:59;12.57;;;2.03;;
20794;SDS011;28087;-33.874;151.240;2022-12-18T12:30:39;9.55;;;1.60;;
20794;SDS011;28087;-33.874;151.240;2022-12-18T12:33:20;10.88;;;1.60;;
20794;SDS011;28087;-33.874;151.240;2022-12-18T12:35:58;9.18;;;1.50;;
20794;SDS011;28087;-33.874;151.240;2022-12-18T12:38:37;9.35;;;1.98;;
20794;SDS011;28087;-33.874;151.240;2022-12-18T12:41:20;9.48;;;1.65;;
20794;SDS011;28087;-33.874;151.240;2022-12-18T12:44:14;7.28;;;1.50;;
20794;SDS011;28087;-33.874;151.240;2022-12-18T12:46:52;8.35;;;1.63;;
20794;SDS011;28087;-33.874;151.240;2022-12-18T12:49:34;8.55;;;1.80;;
20794;SDS011;28087;-33.874;151.240;2022-12-18T12:52:14;9.43;;;1.92;;
20794;SDS011;28087;-33.874;151.240;2022-12-18T12:54:55;11.88;;;2.10;;
20794;SDS011;28087;-33.874;151.240;2022-12-18T12:57:33;12.65;;;2.10;;
20794;SDS011;28087;-33.874;151.240;2022-12-18T13:00:13;10.75;;;2.00;;
20794;SDS011;28087;-33.874;151.240;2022-12-18T13:02:54;11.95;;;1.92;;
20794;SDS011;28087;-33.874;151.240;2022-12-18T13:05:39;13.88;;;2.35;;
20794;SDS011;28087;-33.874;151.240;2022-12-18T13:08:24;12.48;;;2.28;;
20794;SDS011;28087;-33.874;151.240;2022-12-18T13:11:09;13.13;;;2.65;;
20794;SDS011;28087;-33.874;151.240;2022-12-18T13:14:30;15.02;;;2.40;;
20794;SDS011;28087;-33.874;151.240;2022-12-18T13:17:28;13.02;;;2.58;;
20794;SDS011;28087;-33.874;151.240;2022-12-18T13:20:11;15.02;;;2.63;;
20794;SDS011;28087;-33.874;151.240;2022-12-18T13:22:48;16.73;;;3.17;;
20794;SDS011;28087;-33.874;151.240;2022-12-18T13:25:28;21.75;;;3.30;;
20794;SDS011;28087;-33.874;151.240;2022-12-18T13:28:07;17.23;;;3.13;;
20794;SDS011;28087;-33.874;151.240;2022-12-18T13:30:53;21.33;;;3.72;;
20794;SDS011;28087;-33.874;151.240;2022-12-18T13:33:40;21.10;;;3.72;;
20794;SDS011;28087;-33.874;151.240;2022-12-18T13:36:39;20.83;;;4.45;;
20794;SDS011;28087;-33.874;151.240;2022-12-18T13:39:25;19.88;;;3.40;;
20794;SDS011;28087;-33.874;151.240;2022-12-18T13:45:40;19.90;;;3.75;;
20794;SDS011;28087;-33.874;151.240;2022-12-18T13:48:19;23.98;;;3.95;;
20794;SDS011;28087;-33.874;151.240;2022-12-18T13:50:59;23.77;;;3.78;;
20794;SDS011;28087;-33.874;151.240;2022-12-18T13:53:42;23.10;;;4.05;;
20794;SDS011;28087;-33.874;151.240;2022-12-18T13:56:22;22.98;;;3.90;;
20794;SDS011;28087;-33.874;151.240;2022-12-18T13:59:15;25.35;;;3.85;;
20794;SDS011;28087;-33.874;151.240;2022-12-18T14:01:55;28.83;;;3.72;;
20794;SDS011;28087;-33.874;151.240;2022-12-18T14:04:33;20.25;;;3.88;;
20794;SDS011;28087;-33.874;151.240;2022-12-18T14:07:10;17.33;;;3.30;;
20794;SDS011;28087;-33.874;151.240;2022-12-18T14:09:52;21.08;;;3.60;;
20794;SDS011;28087;-33.874;151.240;2022-12-18T14:12:50;17.25;;;3.25;;
20794;SDS011;28087;-33.874;151.240;2022-12-18T14:15:32;21.08;;;3.35;;
20794;SDS011;28087;-33.874;151.240;2022-12-18T14:18:15;21.65;;;3.20;;
20794;SDS011;28087;-33.874;151.240;2022-12-18T14:20:57;17.83;;;3.20;;
20794;SDS011;28087;-33.874;151.240;2022-12-18T14:23:35;18.83;;;3.30;;
20794;SDS011;28087;-33.874;151.240;2022-12-18T14:26:24;17.25;;;2.97;;
20794;SDS011;28087;-33.874;151.240;2022-12-18T14:29:10;17.92;;;3.20;;
20794;SDS011;28087;-33.874;151.240;2022-12-18T14:32:04;17.35;;;2.90;;
20794;SDS011;28087;-33.874;151.240;2022-12-18T14:34:48;18.17;;;2.95;;
20794;SDS011;28087;-33.874;151.240;2022-12-18T14:37:25;17.98;;;3.28;;
20794;SDS011;28087;-33.874;151.240;2022-12-18T14:40:02;14.30;;;2.85;;
20794;SDS011;28087;-33.874;151.240;2022-12-18T14:42:42;15.68;;;2.65;;
20794;SDS011;28087;-33.874;151.240;2022-12-18T14:45:36;18.02;;;2.80;;
20794;SDS011;28087;-33.874;151.240;2022-12-18T14:48:15;16.38;;;2.60;;
20794;SDS011;28087;-33.874;151.240;2022-12-18T14:50:56;16.17;;;3.05;;
20794;SDS011;28087;-33.874;151.240;2022-12-18T14:53:35;16.48;;;2.90;;
20794;SDS011;28087;-33.874;151.240;2022-12-18T14:56:22;17.02;;;2.92;;
20794;SDS011;28087;-33.874;151.240;2022-12-18T14:59:02;13.95;;;2.63;;
20794;SDS011;28087;-33.874;151.240;2022-12-18T15:01:39;16.13;;;2.58;;
20794;SDS011;28087;-33.874;151.240;2022-12-18T15:04:25;14.70;;;2.53;;
20794;SDS011;28087;-33.874;151.240;2022-12-18T15:07:05;15.35;;;2.55;;
20794;SDS011;28087;-33.874;151.240;2022-12-18T15:10:00;15.68;;;2.78;;
20794;SDS011;28087;-33.874;151.240;2022-12-18T15:12:38;15.07;;;2.63;;
20794;SDS011;28087;-33.874;151.240;2022-12-18T15:18:22;12.52;;;2.33;;
20794;SDS011;28087;-33.874;151.240;2022-12-18T15:21:08;15.05;;;2.70;;
20794;SDS011;28087;-33.874;151.240;2022-12-18T15:23:46;16.48;;;2.58;;
20794;SDS011;28087;-33.874;151.240;2022-12-18T15:26:23;14.95;;;2.80;;